Time;durP1;ratioP1;P1;durP2;ratioP2;P2;SDS_P1;SDS_P2;PMS_P1;PMS_P2;Temp;Humidity;BMP_temperature;BMP_pressure;BME280_temperature;BME280_humidity;BME280_pressure;Samples;Min_cycle;Max_cycle;Signal;HPM_P1;HPM_P2
2023/04/08 00:00:59;;;;;;;11.98;8.65;;;4.70;99.90;;;;;;5073108;28;20385;-62
2023/04/08 00:03:26;;;;;;;11.05;7.97;;;4.70;99.90;;;;;;5070404;28;20049;-62
2023/04/08 00:05:53;;;;;;;17.27;8.50;;;4.70;99.90;;;;;;5073328;28;20053;-62
2023/04/08 00:08:21;;;;;;;13.93;9.30;;;4.60;99.90;;;;;;5071848;28;20057;-62
2023/04/08 00:10:48;;;;;;;12.65;8.63;;;4.60;99.90;;;;;;5073430;28;20454;-62
2023/04/08 00:13:15;;;;;;;11.80;8.52;;;4.60;99.90;;;;;;5071842;28;20067;-63
2023/04/08 00:15:42;;;;;;;14.65;9.27;;;4.60;99.90;;;;;;5072140;28;20048;-62
2023/04/08 00:18:09;;;;;;;15.25;9.52;;;4.50;99.90;;;;;;5073460;28;20102;-62
2023/04/08 00:20:35;;;;;;;15.50;10.90;;;4.50;99.90;;;;;;5070729;28;20056;-62
2023/04/08 00:23:02;;;;;;;14.07;9.38;;;4.40;99.90;;;;;;5073676;28;20090;-62
2023/04/08 00:25:31;;;;;;;14.70;9.65;;;4.40;99.90;;;;;;5070737;28;20049;-62
2023/04/08 00:27:58;;;;;;;14.55;9.45;;;4.40;99.90;;;;;;5072312;28;20052;-63
2023/04/08 00:30:26;;;;;;;14.77;9.48;;;4.40;99.90;;;;;;5071304;28;20098;-63
2023/04/08 00:32:53;;;;;;;14.05;10.35;;;4.50;99.90;;;;;;5073036;28;20111;-62
2023/04/08 00:35:20;;;;;;;16.27;10.73;;;4.30;99.90;;;;;;5072437;28;20045;-62
2023/04/08 00:37:48;;;;;;;13.38;9.43;;;4.30;99.90;;;;;;5071848;28;20496;-63
2023/04/08 00:40:15;;;;;;;14.02;9.65;;;4.30;99.90;;;;;;5073116;28;20079;-63
2023/04/08 00:42:44;;;;;;;13.63;10.10;;;4.30;99.90;;;;;;5071233;28;20052;-62
2023/04/08 00:45:11;;;;;;;13.60;10.00;;;4.30;99.90;;;;;;5072777;28;20052;-62
2023/04/08 00:47:39;;;;;;;13.40;9.60;;;4.20;99.90;;;;;;5071285;28;20048;-63
2023/04/08 00:50:09;;;;;;;13.80;9.35;;;4.30;99.90;;;;;;5072518;28;20460;-63
2023/04/08 00:52:36;;;;;;;17.63;11.68;;;4.20;99.90;;;;;;5071708;28;20056;-63
2023/04/08 00:55:03;;;;;;;16.58;11.05;;;4.20;99.90;;;;;;5072768;28;20048;-62
2023/04/08 00:57:30;;;;;;;17.42;10.40;;;4.20;99.90;;;;;;5071892;28;20045;-62
2023/04/08 00:59:59;;;;;;;14.23;9.68;;;4.20;99.90;;;;;;5072664;28;20411;-64
2023/04/08 01:02:31;;;;;;;14.98;10.35;;;4.10;99.90;;;;;;5072256;28;20138;-62
2023/04/08 01:05:02;;;;;;;15.40;10.93;;;4.10;99.90;;;;;;5071040;28;20503;-62
2023/04/08 01:07:32;;;;;;;14.70;10.30;;;4.10;99.90;;;;;;5072610;28;20056;-63
2023/04/08 01:10:05;;;;;;;15.85;10.88;;;4.10;99.90;;;;;;5070940;28;20060;-61
2023/04/08 01:12:37;;;;;;;15.50;11.52;;;4.00;99.90;;;;;;5072874;28;20048;-63
2023/04/08 01:15:07;;;;;;;16.20;11.45;;;4.00;99.90;;;;;;5071023;28;20040;-62
2023/04/08 01:17:36;;;;;;;24.02;11.00;;;4.00;99.90;;;;;;5069625;28;20036;-62
2023/04/08 01:20:05;;;;;;;16.50;11.30;;;4.00;99.90;;;;;;5072268;28;20488;-61
2023/04/08 01:22:43;;;;;;;16.23;11.05;;;4.00;99.90;;;;;;5071256;28;20399;-63
2023/04/08 01:25:16;;;;;;;16.70;11.40;;;3.90;99.90;;;;;;5070716;28;20052;-62
2023/04/08 01:27:47;;;;;;;18.88;12.68;;;4.00;99.90;;;;;;5069643;28;20041;-62
2023/04/08 01:30:17;;;;;;;15.88;12.07;;;3.90;99.90;;;;;;5070315;28;20128;-63
2023/04/08 01:32:45;;;;;;;16.85;12.60;;;3.90;99.90;;;;;;5071601;28;20052;-63
2023/04/08 01:35:13;;;;;;;21.88;13.50;;;3.90;99.90;;;;;;5070970;28;20201;-62
2023/04/08 01:37:41;;;;;;;19.52;13.40;;;3.90;99.90;;;;;;5067058;28;20041;-63
2023/04/08 01:40:10;;;;;;;22.13;12.77;;;3.90;99.90;;;;;;5070965;28;20506;-62
2023/04/08 01:42:38;;;;;;;18.20;12.90;;;3.90;99.90;;;;;;5072308;28;20439;-63
2023/04/08 01:45:09;;;;;;;20.08;13.23;;;3.80;99.90;;;;;;5068224;28;20408;-62
2023/04/08 01:47:37;;;;;;;;;;;3.80;99.90;;;;;;5072106;28;20439;-63
2023/04/08 01:50:06;;;;;;;19.52;12.60;;;3.80;99.90;;;;;;5072080;28;20335;-63
2023/04/08 01:52:37;;;;;;;21.17;13.82;;;3.80;99.90;;;;;;5071500;28;20442;-62
2023/04/08 01:55:05;;;;;;;20.73;14.40;;;3.80;99.90;;;;;;5072190;28;20389;-63
2023/04/08 01:57:35;;;;;;;19.60;14.02;;;3.80;99.90;;;;;;5070371;28;20048;-62
2023/04/08 02:00:05;;;;;;;19.37;13.93;;;3.80;99.90;;;;;;5070178;28;20117;-62
2023/04/08 02:02:35;;;;;;;22.02;13.95;;;3.70;99.90;;;;;;5071927;28;20430;-62
2023/04/08 02:05:02;;;;;;;21.20;14.40;;;3.70;99.90;;;;;;5071766;28;20056;-61
2023/04/08 02:07:29;;;;;;;24.90;15.38;;;3.80;99.90;;;;;;5071381;28;20052;-62
2023/04/08 02:09:57;;;;;;;22.55;15.23;;;3.80;99.90;;;;;;5068725;28;20452;-62
2023/04/08 02:12:25;;;;;;;22.30;15.63;;;3.70;99.90;;;;;;5070735;28;20128;-63
2023/04/08 02:14:53;;;;;;;26.73;14.80;;;3.70;99.90;;;;;;5071198;28;20041;-62
2023/04/08 02:17:25;;;;;;;23.05;14.75;;;3.70;99.90;;;;;;5070744;28;20106;-63
2023/04/08 02:20:01;;;;;;;23.52;15.25;;;3.70;99.90;;;;;;5071285;28;20037;-63
2023/04/08 02:22:36;;;;;;;22.60;13.73;;;3.60;99.90;;;;;;5070643;28;20072;-63
2023/04/08 02:25:07;;;;;;;23.25;15.43;;;3.60;99.90;;;;;;5071860;28;20408;-63
2023/04/08 02:27:35;;;;;;;21.65;15.45;;;3.60;99.90;;;;;;5070792;28;20457;-62
2023/04/08 02:30:04;;;;;;;24.58;15.55;;;3.60;99.90;;;;;;5071841;28;20090;-62
2023/04/08 02:32:33;;;;;;;25.52;15.13;;;3.60;99.90;;;;;;5070404;28;20083;-62
2023/04/08 02:35:03;;;;;;;21.67;14.68;;;3.50;99.90;;;;;;5070068;28;20044;-61
2023/04/08 02:37:30;;;;;;;24.00;16.85;;;3.50;99.90;;;;;;5069608;28;20124;-63
2023/04/08 02:39:57;;;;;;;23.08;15.65;;;3.50;99.90;;;;;;5070491;28;20079;-62
2023/04/08 02:42:24;;;;;;;21.38;15.13;;;3.50;99.90;;;;;;5071122;28;20044;-62
2023/04/08 02:44:51;;;;;;;26.77;15.65;;;3.40;99.90;;;;;;5069519;28;20150;-62
2023/04/08 02:47:18;;;;;;;23.67;15.18;;;3.40;99.90;;;;;;5071486;28;20040;-63
2023/04/08 02:49:45;;;;;;;22.95;15.18;;;3.40;99.90;;;;;;5070082;28;20479;-62
2023/04/08 02:52:13;;;;;;;21.20;15.07;;;3.30;99.90;;;;;;5074931;28;20049;-62
2023/04/08 02:54:40;;;;;;;20.83;14.10;;;3.30;99.90;;;;;;5071802;28;20048;-62
2023/04/08 02:57:07;;;;;;;21.40;14.77;;;3.20;99.90;;;;;;5072848;28;20057;-62
2023/04/08 02:59:36;;;;;;;24.35;15.38;;;3.20;99.90;;;;;;5075158;28;20037;-62
2023/04/08 03:02:04;;;;;;;22.75;15.02;;;3.10;99.90;;;;;;5074241;28;20048;-63
2023/04/08 03:04:31;;;;;;;22.48;14.45;;;3.10;99.90;;;;;;5074871;28;20131;-62
2023/04/08 03:06:57;;;;;;;22.38;15.30;;;3.10;99.90;;;;;;5073220;28;20056;-62
2023/04/08 03:09:26;;;;;;;22.42;14.70;;;3.00;99.90;;;;;;5074373;28;20110;-63
2023/04/08 03:11:53;;;;;;;25.20;16.27;;;3.00;99.90;;;;;;5071486;28;20101;-62
2023/04/08 03:14:21;;;;;;;22.60;14.88;;;3.00;99.90;;;;;;5074621;28;20048;-61
2023/04/08 03:16:48;;;;;;;23.23;14.68;;;2.90;99.90;;;;;;5074151;28;20208;-62
2023/04/08 03:19:15;;;;;;;23.42;16.33;;;2.80;99.90;;;;;;5074574;28;20131;-62
2023/04/08 03:21:42;;;;;;;23.52;15.48;;;2.80;99.90;;;;;;5073555;28;20088;-62
2023/04/08 03:24:08;;;;;;;27.42;16.13;;;2.80;99.90;;;;;;5073996;28;20443;-63
2023/04/08 03:26:37;;;;;;;27.52;16.48;;;2.80;99.90;;;;;;5073312;28;20048;-63
2023/04/08 03:29:04;;;;;;;25.17;16.85;;;2.80;99.90;;;;;;5072201;28;20070;-61
2023/04/08 03:31:31;;;;;;;27.38;16.80;;;2.80;99.90;;;;;;5073759;28;20045;-61
2023/04/08 03:33:57;;;;;;;26.95;16.27;;;2.70;99.90;;;;;;5071287;28;20405;-62
2023/04/08 03:36:25;;;;;;;26.55;18.27;;;2.70;99.90;;;;;;5074370;28;20378;-62
2023/04/08 03:38:52;;;;;;;26.45;17.02;;;2.70;99.90;;;;;;5073803;28;20377;-61
2023/04/08 03:41:19;;;;;;;28.08;17.48;;;2.70;99.90;;;;;;5073114;28;20407;-62
2023/04/08 03:43:48;;;;;;;28.65;17.25;;;2.70;99.90;;;;;;5074182;28;20040;-63
2023/04/08 03:46:15;;;;;;;26.63;17.08;;;2.70;99.90;;;;;;5073137;28;20489;-63
2023/04/08 03:48:41;;;;;;;27.35;16.95;;;2.70;99.90;;;;;;5073843;28;20045;-62
2023/04/08 03:51:08;;;;;;;31.50;17.95;;;2.70;99.90;;;;;;5074098;28;20496;-62
2023/04/08 03:53:35;;;;;;;27.13;18.13;;;2.80;99.90;;;;;;5072118;28;20055;-63
2023/04/08 03:56:03;;;;;;;28.20;19.17;;;2.80;99.90;;;;;;5072723;28;20078;-62
2023/04/08 03:58:30;;;;;;;30.75;19.05;;;2.80;99.90;;;;;;5073142;28;20492;-63
2023/04/08 04:00:59;;;;;;;28.10;18.92;;;2.80;99.90;;;;;;5072879;28;20044;-62
2023/04/08 04:03:26;;;;;;;29.88;18.73;;;2.80;99.90;;;;;;5073727;28;20414;-62
2023/04/08 04:05:53;;;;;;;32.17;19.50;;;2.80;99.90;;;;;;5073239;28;20048;-62
2023/04/08 04:08:20;;;;;;;32.38;18.92;;;2.90;99.90;;;;;;5072422;28;20101;-63
2023/04/08 04:10:47;;;;;;;26.92;18.55;;;2.90;99.90;;;;;;5074000;28;20094;-62
2023/04/08 04:13:14;;;;;;;32.33;19.23;;;2.80;99.90;;;;;;5071635;28;20060;-63
2023/04/08 04:15:41;;;;;;;33.45;19.35;;;2.80;99.90;;;;;;5069964;28;20054;-61
2023/04/08 04:18:10;;;;;;;30.27;19.05;;;2.90;99.90;;;;;;5073558;28;20060;-63
2023/04/08 04:20:40;;;;;;;30.65;18.65;;;2.90;99.90;;;;;;5072846;28;20428;-62
2023/04/08 04:23:07;;;;;;;31.67;18.92;;;2.90;99.90;;;;;;5071879;28;20048;-62
2023/04/08 04:25:34;;;;;;;28.02;18.10;;;2.90;99.90;;;;;;5072092;28;20078;-63
2023/04/08 04:28:01;;;;;;;31.92;20.10;;;2.90;99.90;;;;;;5071322;28;20055;-64
2023/04/08 04:30:28;;;;;;;29.25;19.38;;;2.90;99.90;;;;;;5073437;28;20369;-63
2023/04/08 04:32:56;;;;;;;30.50;19.30;;;2.80;99.90;;;;;;5073294;28;20128;-63
2023/04/08 04:35:24;;;;;;;30.00;18.33;;;2.80;99.90;;;;;;5072522;28;20044;-62
2023/04/08 04:37:52;;;;;;;30.13;18.33;;;2.80;99.90;;;;;;5073099;28;20130;-63
2023/04/08 04:40:19;;;;;;;30.95;19.27;;;2.80;99.90;;;;;;5072999;28;20044;-62
2023/04/08 04:42:46;;;;;;;35.67;20.13;;;2.80;99.90;;;;;;5071244;28;20060;-64
2023/04/08 04:45:13;;;;;;;30.33;19.80;;;2.80;99.90;;;;;;5072930;28;20044;-63
2023/04/08 04:47:40;;;;;;;26.95;18.05;;;2.80;99.90;;;;;;5071577;28;20052;-62
2023/04/08 04:50:08;;;;;;;32.78;20.30;;;2.80;99.90;;;;;;5062794;28;20048;-63
2023/04/08 04:52:37;;;;;;;32.25;19.30;;;2.80;99.90;;;;;;5066661;28;20044;-63
2023/04/08 04:55:05;;;;;;;31.17;19.10;;;2.80;99.90;;;;;;5068234;28;20044;-62
2023/04/08 04:57:31;;;;;;;30.08;19.63;;;2.80;99.90;;;;;;5069902;28;20051;-62
2023/04/08 04:59:58;;;;;;;29.10;19.02;;;2.80;99.90;;;;;;5069154;28;20504;-63
2023/04/08 05:02:25;;;;;;;32.38;19.52;;;2.80;99.90;;;;;;5066215;28;20056;-62
2023/04/08 05:04:54;;;;;;;33.17;19.55;;;2.80;99.90;;;;;;5069580;28;20052;-63
2023/04/08 05:07:21;;;;;;;32.33;18.10;;;2.80;99.90;;;;;;5070290;28;20059;-62
2023/04/08 05:09:50;;;;;;;33.95;20.88;;;2.80;99.90;;;;;;5068627;28;20139;-62
2023/04/08 05:12:19;;;;;;;30.05;18.95;;;2.90;99.90;;;;;;5069560;28;20492;-62
2023/04/08 05:14:46;;;;;;;31.02;19.52;;;2.90;99.90;;;;;;5069372;28;20045;-63
2023/04/08 05:17:13;;;;;;;33.13;19.17;;;3.00;99.90;;;;;;5069756;28;20052;-61
2023/04/08 05:19:40;;;;;;;33.63;20.35;;;2.90;99.90;;;;;;5070266;28;20118;-62
2023/04/08 05:22:06;;;;;;;30.75;19.10;;;3.00;99.90;;;;;;5070286;28;20049;-62
2023/04/08 05:24:34;;;;;;;30.35;20.30;;;3.00;99.90;;;;;;5071265;28;20063;-62
2023/04/08 05:27:02;;;;;;;32.95;20.77;;;3.00;99.90;;;;;;5067923;28;20067;-62
2023/04/08 05:29:29;;;;;;;31.67;20.63;;;3.10;99.90;;;;;;5070140;28;20044;-61
2023/04/08 05:31:56;;;;;;;32.88;19.83;;;3.10;99.90;;;;;;5069156;28;20063;-61
2023/04/08 05:34:23;;;;;;;30.85;20.98;;;3.20;99.90;;;;;;5070123;28;20131;-61
2023/04/08 05:36:51;;;;;;;34.25;20.88;;;3.20;99.90;;;;;;5066477;28;20052;-60
2023/04/08 05:39:18;;;;;;;35.10;20.48;;;3.30;99.90;;;;;;5071093;28;20503;-61
2023/04/08 05:41:45;;;;;;;31.33;20.15;;;3.30;99.90;;;;;;5068874;28;20106;-61
2023/04/08 05:44:14;;;;;;;33.25;20.20;;;3.50;99.90;;;;;;5070607;28;20080;-62
2023/04/08 05:46:41;;;;;;;32.60;19.90;;;3.40;99.90;;;;;;5067574;28;20052;-62
2023/04/08 05:49:08;;;;;;;32.80;20.80;;;3.50;99.90;;;;;;5071604;28;20105;-63
2023/04/08 05:51:35;;;;;;;32.90;20.23;;;3.60;99.90;;;;;;5067225;28;20045;-60
2023/04/08 05:54:02;;;;;;;33.58;20.83;;;3.60;99.90;;;;;;5069321;28;20102;-61
2023/04/08 05:56:30;;;;;;;32.88;20.63;;;3.70;99.90;;;;;;5067836;28;20050;-61
2023/04/08 05:58:57;;;;;;;31.73;20.00;;;4.10;99.90;;;;;;5068924;28;20059;-62
2023/04/08 06:01:26;;;;;;;35.65;20.75;;;4.00;99.90;;;;;;5063229;28;20052;-63
2023/04/08 06:03:54;;;;;;;34.65;19.98;;;4.10;99.90;;;;;;5067170;28;20079;-62
2023/04/08 06:06:21;;;;;;;31.08;19.25;;;4.20;99.90;;;;;;5066876;28;20089;-63
2023/04/08 06:08:48;;;;;;;32.97;19.75;;;4.40;99.90;;;;;;5066969;28;20048;-62
2023/04/08 06:11:15;;;;;;;34.55;20.20;;;4.50;99.90;;;;;;5069733;28;20053;-62
2023/04/08 06:13:42;;;;;;;29.73;19.13;;;4.70;99.90;;;;;;5059384;28;20053;-62
2023/04/08 06:16:13;;;;;;;30.63;20.17;;;4.80;99.90;;;;;;5069832;28;20048;-61
2023/04/08 06:18:41;;;;;;;28.55;18.45;;;4.90;99.90;;;;;;5065983;28;20550;-62
2023/04/08 06:21:08;;;;;;;29.80;19.35;;;5.10;99.90;;;;;;5067594;28;20568;-62
2023/04/08 06:23:35;;;;;;;30.23;18.60;;;5.20;99.90;;;;;;5063015;28;20045;-62
2023/04/08 06:26:03;;;;;;;28.33;18.30;;;5.40;99.90;;;;;;5071762;28;20102;-62
2023/04/08 06:28:30;;;;;;;27.38;17.67;;;5.50;99.90;;;;;;5066251;28;20052;-62
2023/04/08 06:30:57;;;;;;;27.30;17.42;;;5.70;99.90;;;;;;5071433;28;20595;-62
2023/04/08 06:33:24;;;;;;;24.35;15.85;;;6.10;99.90;;;;;;5070455;28;20101;-63
2023/04/08 06:36:01;;;;;;;28.40;15.13;;;6.90;99.90;;;;;;5071076;28;20130;-63
2023/04/08 06:38:28;;;;;;;24.95;15.30;;;7.60;99.90;;;;;;5062184;28;20076;-62
2023/04/08 06:40:55;;;;;;;21.52;13.82;;;8.40;99.90;;;;;;5063548;28;20045;-62
2023/04/08 06:43:22;;;;;;;19.55;12.80;;;8.90;99.90;;;;;;5067427;28;20087;-63
2023/04/08 06:45:50;;;;;;;20.50;14.32;;;9.00;99.90;;;;;;5070120;28;20054;-63
2023/04/08 06:48:16;;;;;;;18.67;13.23;;;8.70;99.90;;;;;;5062077;28;20056;-62
2023/04/08 06:50:43;;;;;;;20.23;13.93;;;8.50;99.90;;;;;;5068006;28;20139;-62
2023/04/08 06:53:12;;;;;;;18.20;11.77;;;8.40;99.90;;;;;;5073520;28;20054;-62
2023/04/08 06:55:39;;;;;;;19.65;11.85;;;8.30;99.90;;;;;;5067523;28;20404;-62
2023/04/08 06:58:06;;;;;;;17.40;12.25;;;8.40;99.90;;;;;;5064660;28;20052;-63
2023/04/08 07:00:33;;;;;;;15.75;11.95;;;8.50;99.90;;;;;;5071108;28;20045;-62
2023/04/08 07:03:00;;;;;;;19.70;12.25;;;9.00;99.90;;;;;;5071097;28;20055;-63
2023/04/08 07:05:27;;;;;;;17.13;11.95;;;9.50;99.90;;;;;;5070398;28;20064;-63
2023/04/08 07:07:54;;;;;;;16.45;12.10;;;9.90;99.90;;;;;;5071029;28;20044;-63
2023/04/08 07:10:22;;;;;;;16.80;11.57;;;10.40;99.90;;;;;;5069480;28;20044;-63
2023/04/08 07:12:52;;;;;;;15.65;11.30;;;10.60;99.90;;;;;;5068685;28;20059;-63
2023/04/08 07:15:19;;;;;;;19.60;11.23;;;11.00;99.90;;;;;;5070940;28;20052;-63
2023/04/08 07:17:46;;;;;;;12.93;10.40;;;11.10;99.90;;;;;;5071952;28;20131;-62
2023/04/08 07:20:14;;;;;;;16.55;10.98;;;10.70;99.90;;;;;;5065222;28;20107;-63
2023/04/08 07:22:41;;;;;;;13.52;10.15;;;10.30;99.90;;;;;;5068723;28;20079;-62
2023/04/08 07:25:08;;;;;;;13.48;9.80;;;9.70;99.90;;;;;;5071927;28;20507;-62
2023/04/08 07:27:37;;;;;;;13.43;10.73;;;9.40;99.90;;;;;;5072994;28;20506;-62
2023/04/08 07:30:04;;;;;;;14.27;10.82;;;9.20;99.90;;;;;;5071877;28;20041;-62
2023/04/08 07:32:32;;;;;;;13.85;9.57;;;9.10;99.90;;;;;;5071526;28;20119;-62
2023/04/08 07:34:59;;;;;;;17.00;10.70;;;8.90;99.90;;;;;;5073515;28;20045;-62
2023/04/08 07:37:26;;;;;;;14.18;10.20;;;8.80;99.90;;;;;;5071665;28;20098;-62
2023/04/08 07:39:54;;;;;;;16.27;11.07;;;8.70;99.90;;;;;;5073726;28;20535;-63
2023/04/08 07:42:21;;;;;;;13.63;10.00;;;8.40;99.90;;;;;;5073870;28;20105;-62
2023/04/08 07:44:49;;;;;;;12.93;10.10;;;8.50;99.90;;;;;;5072354;28;20044;-63
2023/04/08 07:47:16;;;;;;;15.05;10.77;;;8.40;99.90;;;;;;5072831;28;20055;-62
2023/04/08 07:49:45;;;;;;;13.50;9.55;;;8.60;99.90;;;;;;5073574;28;20070;-62
2023/04/08 07:52:12;;;;;;;14.25;10.48;;;8.60;99.90;;;;;;5072088;28;20122;-63
2023/04/08 07:54:39;;;;;;;14.23;10.20;;;8.70;99.90;;;;;;5072898;28;20533;-63
2023/04/08 07:57:06;;;;;;;13.15;10.15;;;8.80;99.90;;;;;;5073155;28;20095;-63
2023/04/08 07:59:33;;;;;;;13.73;9.75;;;8.70;99.90;;;;;;5071674;28;20052;-62
2023/04/08 08:02:01;;;;;;;16.77;11.00;;;8.70;99.90;;;;;;5072201;28;20386;-62
2023/04/08 08:04:28;;;;;;;15.35;11.27;;;8.70;99.90;;;;;;5073150;28;20056;-62
2023/04/08 08:06:55;;;;;;;16.73;11.73;;;8.80;99.90;;;;;;5071078;28;20048;-62
2023/04/08 08:09:22;;;;;;;15.73;11.23;;;8.70;99.90;;;;;;5071903;28;20056;-63
2023/04/08 08:11:49;;;;;;;16.08;11.85;;;8.80;99.90;;;;;;5072808;28;20051;-62
2023/04/08 08:14:16;;;;;;;13.85;9.82;;;8.80;99.90;;;;;;5073084;28;20389;-63
2023/04/08 08:16:43;;;;;;;14.25;10.45;;;8.80;99.90;;;;;;5073221;28;20044;-63
2023/04/08 08:19:12;;;;;;;15.23;10.18;;;8.70;99.90;;;;;;5071442;28;20127;-62
2023/04/08 08:21:40;;;;;;;14.38;10.48;;;8.90;99.90;;;;;;5071823;28;20512;-62
2023/04/08 08:24:07;;;;;;;14.60;10.07;;;9.10;99.90;;;;;;5073009;28;20071;-63
2023/04/08 08:26:35;;;;;;;14.40;10.73;;;9.30;99.90;;;;;;5071507;28;20048;-62
2023/04/08 08:29:03;;;;;;;14.20;10.40;;;9.50;99.90;;;;;;5071728;28;20127;-62
2023/04/08 08:31:30;;;;;;;13.30;10.43;;;9.50;99.90;;;;;;5072920;28;20435;-63
2023/04/08 08:33:56;;;;;;;13.32;9.95;;;9.50;99.90;;;;;;5071253;28;20446;-63
2023/04/08 08:36:26;;;;;;;14.50;9.50;;;9.20;99.90;;;;;;5103466;28;20495;-64
2023/04/08 08:38:53;;;;;;;16.80;10.23;;;9.20;99.90;;;;;;5071566;28;20068;-63
2023/04/08 08:41:20;;;;;;;14.18;10.02;;;9.00;99.90;;;;;;5072261;28;20044;-63
2023/04/08 08:43:47;;;;;;;15.30;11.10;;;8.90;99.90;;;;;;5071355;28;20045;-62
2023/04/08 08:46:17;;;;;;;16.33;11.00;;;8.70;99.90;;;;;;5071488;28;20098;-64
2023/04/08 08:48:44;;;;;;;13.20;9.90;;;8.70;99.90;;;;;;5070441;28;20060;-63
2023/04/08 08:51:12;;;;;;;13.57;9.82;;;8.60;99.90;;;;;;5072382;28;20504;-63
2023/04/08 08:53:43;;;;;;;12.32;9.55;;;8.50;99.90;;;;;;5071356;28;20098;-62
2023/04/08 08:56:10;;;;;;;15.55;10.93;;;8.40;99.90;;;;;;5069691;28;20086;-62
2023/04/08 08:58:38;;;;;;;17.15;12.52;;;8.40;99.90;;;;;;5072094;28;20466;-62
2023/04/08 09:01:36;;;;;;;15.20;10.13;;;8.40;99.90;;;;;;5070821;28;20059;-62
2023/04/08 09:04:15;;;;;;;16.60;11.02;;;8.30;99.90;;;;;;5070835;28;20339;-63
2023/04/08 09:06:43;;;;;;;15.55;10.70;;;8.30;99.90;;;;;;5071213;28;20404;-63
2023/04/08 09:09:11;;;;;;;14.43;10.60;;;8.20;99.90;;;;;;5071917;28;20443;-63
2023/04/08 09:11:39;;;;;;;16.40;10.80;;;8.30;99.90;;;;;;5072197;28;20036;-62
2023/04/08 09:14:16;;;;;;;15.63;10.18;;;8.30;99.90;;;;;;5070951;28;20126;-63
2023/04/08 09:16:44;;;;;;;14.27;10.20;;;8.20;99.90;;;;;;5071651;28;20102;-63
2023/04/08 09:19:12;;;;;;;14.98;11.10;;;8.10;99.90;;;;;;5070898;28;20050;-62
2023/04/08 09:21:40;;;;;;;14.70;9.73;;;8.10;99.90;;;;;;5069255;28;20098;-63
2023/04/08 09:24:07;;;;;;;14.40;9.25;;;8.20;99.90;;;;;;5070414;28;20060;-63
2023/04/08 09:26:37;;;;;;;14.25;9.13;;;8.20;99.90;;;;;;5068959;28;20448;-62
2023/04/08 09:29:05;;;;;;;12.18;8.55;;;8.10;99.90;;;;;;5071490;28;20054;-62
2023/04/08 09:31:34;;;;;;;13.60;8.88;;;8.00;99.90;;;;;;5072250;28;20141;-63
2023/04/08 09:34:10;;;;;;;14.23;8.55;;;8.10;99.90;;;;;;5071915;28;20044;-64
2023/04/08 09:36:36;;;;;;;12.45;8.10;;;8.10;99.90;;;;;;5068301;28;20575;-62
2023/04/08 09:39:03;;;;;;;13.35;9.15;;;8.20;99.90;;;;;;5070669;28;20052;-63
2023/04/08 09:41:35;;;;;;;12.82;8.48;;;8.20;99.90;;;;;;5071028;28;20069;-62
2023/04/08 09:44:05;;;;;;;12.00;8.27;;;8.20;99.90;;;;;;5070367;28;20450;-62
2023/04/08 09:46:36;;;;;;;12.80;8.93;;;8.30;99.90;;;;;;5069926;28;20078;-63
2023/04/08 09:49:07;;;;;;;13.73;8.82;;;8.40;99.90;;;;;;5071642;28;20048;-64
2023/04/08 09:51:53;;;;;;;16.75;9.98;;;8.50;99.90;;;;;;5071349;28;20063;-63
2023/04/08 09:54:22;;;;;;;14.40;10.15;;;8.60;99.90;;;;;;5070416;28;20447;-63
2023/04/08 09:57:03;;;;;;;17.35;11.07;;;8.80;99.90;;;;;;5069778;28;20405;-62
2023/04/08 09:59:35;;;;;;;15.70;10.70;;;8.90;99.90;;;;;;5072696;28;20492;-61
2023/04/08 10:02:08;;;;;;;13.45;9.68;;;9.10;99.90;;;;;;5076033;28;20040;-62
2023/04/08 10:04:38;;;;;;;17.30;10.63;;;9.10;99.90;;;;;;5073947;28;20098;-63
2023/04/08 10:07:08;;;;;;;14.57;10.32;;;9.20;99.90;;;;;;5073921;28;20044;-63
2023/04/08 10:09:37;;;;;;;13.17;9.27;;;9.30;99.90;;;;;;5073534;28;20102;-62
2023/04/08 10:12:05;;;;;;;14.93;9.90;;;9.40;99.90;;;;;;5073690;28;20311;-62
2023/04/08 10:14:32;;;;;;;13.68;9.35;;;9.60;99.90;;;;;;5075720;28;20453;-63
2023/04/08 10:17:25;;;;;;;13.88;10.07;;;9.60;99.90;;;;;;5075302;28;20094;-63
2023/04/08 10:19:52;;;;;;;14.50;9.50;;;9.80;99.90;;;;;;5074803;28;20507;-62
2023/04/08 10:22:47;;;;;;;14.45;10.25;;;9.70;99.90;;;;;;5074218;28;20052;-62
2023/04/08 10:25:31;;;;;;;13.35;8.98;;;9.70;99.90;;;;;;5073256;28;20143;-63
2023/04/08 10:28:00;;;;;;;14.02;9.57;;;9.60;99.90;;;;;;5074165;28;20076;-63
2023/04/08 10:30:41;;;;;;;14.55;10.18;;;9.70;99.90;;;;;;5074906;28;20403;-63
2023/04/08 10:33:10;;;;;;;;;;;9.60;99.90;;;;;;5074205;28;20458;-63
2023/04/08 10:35:40;;;;;;;14.05;9.90;;;9.40;99.90;;;;;;5073010;28;19920;-64
2023/04/08 10:38:07;;;;;;;18.45;10.43;;;9.50;99.90;;;;;;5075182;28;20076;-62
2023/04/08 10:40:37;;;;;;;16.85;10.65;;;9.50;99.90;;;;;;5074515;28;20436;-63
2023/04/08 10:43:06;;;;;;;15.93;10.13;;;9.50;99.90;;;;;;5073927;28;20087;-63
2023/04/08 10:45:33;;;;;;;16.45;10.45;;;9.50;99.90;;;;;;5073957;28;20135;-62
2023/04/08 10:48:12;;;;;;;15.82;10.63;;;9.50;99.90;;;;;;5074456;28;20430;-63
2023/04/08 10:50:39;;;;;;;17.92;11.02;;;9.60;99.90;;;;;;5073859;28;20053;-62
2023/04/08 10:53:07;;;;;;;18.05;11.23;;;9.70;99.90;;;;;;5074015;28;20106;-63
2023/04/08 10:55:34;;;;;;;16.13;10.60;;;9.70;99.90;;;;;;5072811;28;20067;-62
2023/04/08 10:58:07;;;;;;;16.63;10.80;;;9.90;99.90;;;;;;5073736;28;20490;-62
2023/04/08 11:00:36;;;;;;;15.63;11.35;;;10.00;99.90;;;;;;5074132;28;20052;-62
2023/04/08 11:03:03;;;;;;;18.30;10.93;;;10.20;99.90;;;;;;5073796;28;20469;-63
2023/04/08 11:05:31;;;;;;;15.82;11.20;;;10.00;99.90;;;;;;5071009;28;20055;-63
2023/04/08 11:07:58;;;;;;;18.95;11.43;;;10.00;99.90;;;;;;5072507;28;20056;-63
2023/04/08 11:10:26;;;;;;;20.48;13.80;;;10.10;99.90;;;;;;5074117;28;20415;-62
2023/04/08 11:12:54;;;;;;;19.63;13.20;;;10.00;99.90;;;;;;5073535;28;20131;-63
2023/04/08 11:15:24;;;;;;;23.27;14.05;;;10.10;99.90;;;;;;5072822;28;20094;-63
2023/04/08 11:17:52;;;;;;;20.03;12.83;;;10.10;99.90;;;;;;5071414;28;20097;-63
2023/04/08 11:20:19;;;;;;;19.40;13.30;;;10.10;99.90;;;;;;5073287;28;20071;-62
2023/04/08 11:22:47;;;;;;;21.25;14.10;;;10.10;99.90;;;;;;5073798;28;20056;-62
2023/04/08 11:25:14;;;;;;;22.15;14.45;;;10.00;99.90;;;;;;5071134;28;20090;-62
2023/04/08 11:27:42;;;;;;;24.08;13.60;;;10.00;99.90;;;;;;5072969;28;20056;-62
2023/04/08 11:30:10;;;;;;;21.95;14.20;;;10.10;99.90;;;;;;5072482;28;20102;-63
2023/04/08 11:32:39;;;;;;;26.58;14.93;;;10.20;99.90;;;;;;5074017;28;20415;-63
2023/04/08 11:35:07;;;;;;;21.73;14.23;;;10.30;99.90;;;;;;5074029;28;20135;-63
2023/04/08 11:37:38;;;;;;;28.60;15.35;;;10.30;99.90;;;;;;5073296;28;20634;-62
2023/04/08 11:40:09;;;;;;;26.25;13.25;;;10.40;99.90;;;;;;5074007;28;20055;-63
2023/04/08 11:42:37;;;;;;;23.40;13.73;;;10.40;99.90;;;;;;5073596;28;20078;-62
2023/04/08 11:45:11;;;;;;;23.98;13.65;;;10.50;99.90;;;;;;5073974;28;20454;-63
2023/04/08 11:47:39;;;;;;;23.27;13.25;;;10.50;99.90;;;;;;5073750;28;20047;-63
2023/04/08 11:50:08;;;;;;;22.65;13.70;;;10.50;99.90;;;;;;5073439;28;20044;-63
2023/04/08 11:52:42;;;;;;;22.10;13.70;;;10.50;99.90;;;;;;5073579;28;20090;-63
2023/04/08 11:55:10;;;;;;;18.92;11.57;;;10.50;99.90;;;;;;5072629;28;20405;-62
2023/04/08 11:57:37;;;;;;;23.17;13.43;;;10.60;99.90;;;;;;5071917;28;20051;-63
2023/04/08 12:00:05;;;;;;;22.55;12.75;;;10.40;99.90;;;;;;5071284;28;20117;-63
2023/04/08 12:02:32;;;;;;;23.50;13.52;;;10.50;99.90;;;;;;5073606;28;20491;-64
2023/04/08 12:05:01;;;;;;;17.25;11.90;;;10.50;99.90;;;;;;5066144;28;20044;-63
2023/04/08 12:07:28;;;;;;;18.30;11.73;;;10.50;99.90;;;;;;5067317;28;20523;-62
2023/04/08 12:09:55;;;;;;;18.58;12.38;;;10.50;99.90;;;;;;5069780;28;20554;-63
2023/04/08 12:12:22;;;;;;;22.45;13.27;;;10.50;99.90;;;;;;5068900;28;20481;-62
2023/04/08 12:14:49;;;;;;;25.27;13.25;;;10.50;99.90;;;;;;5070236;28;20578;-62
2023/04/08 12:17:16;;;;;;;24.08;15.25;;;10.50;99.90;;;;;;5070171;28;20191;-62
2023/04/08 12:19:42;;;;;;;23.42;15.43;;;10.50;99.90;;;;;;5068530;28;20102;-63
2023/04/08 12:22:11;;;;;;;22.52;14.05;;;10.40;99.90;;;;;;5069684;28;20041;-62
2023/04/08 12:24:37;;;;;;;25.60;16.25;;;10.50;99.90;;;;;;5068777;28;20052;-63
2023/04/08 12:27:04;;;;;;;23.20;14.88;;;10.50;99.90;;;;;;5070152;28;20450;-64
2023/04/08 12:29:31;;;;;;;20.08;13.60;;;10.50;99.90;;;;;;5065848;28;20364;-63
2023/04/08 12:31:58;;;;;;;21.48;13.93;;;10.40;99.90;;;;;;5064376;28;20111;-63
2023/04/08 12:34:25;;;;;;;19.48;13.50;;;10.50;99.90;;;;;;5068040;28;20083;-61
2023/04/08 12:36:52;;;;;;;21.58;13.82;;;10.50;99.90;;;;;;5068260;28;20045;-63
2023/04/08 12:39:21;;;;;;;24.17;14.13;;;10.60;99.90;;;;;;5067485;28;20052;-61
2023/04/08 12:41:47;;;;;;;22.85;13.95;;;10.70;99.90;;;;;;5065903;28;20041;-61
2023/04/08 12:44:14;;;;;;;26.02;14.82;;;10.70;99.90;;;;;;5067060;28;20056;-61